• Join FlightAware (Why Join?)
  • Login
  • US Flag 
07:27PM EST


 

Airport Tracker/Info


-or-


 

Live Flight TrackerFlight Track Log ✈ SWA378 ✈ 13-May-2013 ✈ KSJC - KLAX

Flight Track Log - Related Links

Times and Time Zones

All times are in EDT time to prevent confusion due to time zone crossing. See the SWA378 flight status page for this flight to view local times or setup timezone preferences in your user account.

Time Position Orientation Groundspeed Altitude Reporting Facility
EDT Latitude Longitude Course Direction KTS MPH feet Rate Location/Type
11:41AM 37.4000 -121.9667 141° Southeast 185 213 2,700  Level Northern Cal TRACON
11:42AM 37.4500 -121.9500 15° North 245 282 5,000 1,860 Climbing Northern Cal TRACON
11:44AM 37.3475 -121.8147 134° Southeast 229 264 9,000 1,920 Climbing Oakland Center
11:45AM 37.2881 -121.7481 138° Southeast 285 328 11,500 2,700 Climbing Oakland Center
11:46AM 36.8523 -121.3770 141° Southeast  Level Estimated
11:46AM 37.2158 -121.6681 139° Southeast 341 392 14,600  Level Oakland Center
11:47AM 37.1406 -121.5836 138° Southeast 360 414 17,900 3,060 Climbing Oakland Center
11:48AM 37.0597 -121.5014 141° Southeast 383 441 20,900 3,000 Climbing Oakland Center
11:49AM 36.9819 -121.4106 137° Southeast 383 441 24,000 2,640 Climbing Oakland Center
11:50AM 36.9008 -121.3206 138° Southeast 388 447 26,400 2,220 Climbing Oakland Center
11:51AM 36.8003 -121.2181 141° Southeast 411 473 28,600 1,920 Climbing Oakland Center
11:52AM 36.7133 -121.1186 137° Southeast 422 486 30,400 1,560 Climbing Oakland Center
11:53AM 36.6208 -121.0208 140° Southeast 434 499 31,900 1,800 Climbing Oakland Center
11:54AM 36.5272 -120.9211 139° Southeast 441 507 34,100 2,100 Climbing Oakland Center
11:55AM 36.4381 -120.8222 138° Southeast 433 498 36,300 1,620 Climbing Oakland Center
11:56AM 36.3503 -120.7247 138° Southeast 424 488 37,500 1,260 Climbing Oakland Center
11:57AM 36.2422 -120.6119 140° Southeast 425 489 39,000 720 Climbing Oakland Center
11:58AM 36.1547 -120.5167 139° Southeast 419 482 39,000  Level Oakland Center
11:59AM 36.0656 -120.4183 138° Southeast 429 494 39,000  Level Oakland Center
12:00PM 35.9797 -120.3319 141° Southeast 396 456 39,000  Level Oakland Center
12:01PM 35.8925 -120.2386 139° Southeast 409 471 39,000  Level Oakland Center
12:02PM 35.8042 -120.1447 139° Southeast 417 480 39,000  Level Oakland Center
12:03PM 35.7161 -120.0511 139° Southeast 414 476 39,000  Level Oakland Center
12:04PM 35.6269 -119.9611 141° Southeast 413 475 39,000  Level Oakland Center
12:05PM 35.5319 -119.8783 145° Southeast 414 476 39,000 -300 Level Oakland Center
12:06PM 35.4369 -119.7967 145° Southeast 414 476 38,400 -540 Descending Oakland Center
12:07PM 35.3408 -119.7147 145° Southeast 416 479 38,000 -240 Descending Oakland Center
12:08PM 35.2250 -119.6139 145° Southeast 422 486 38,000 -780 Level Oakland Center
12:10PM 35.1300 -119.5331 145° Southeast 417 480 36,400 -2,040 Descending Los Angeles Center
12:11PM 35.0369 -119.4528 145° Southeast 410 472 33,700 -2,700 Descending Los Angeles Center
12:12PM 34.9408 -119.3708 145° Southeast 418 481 30,900 -2,940 Descending Los Angeles Center
12:13PM 34.8222 -119.2706 145° Southeast 431 496 27,700 -2,700 Descending Los Angeles Center
12:14PM 34.7250 -119.1900 146° Southeast 425 489 25,400 -2,280 Descending Los Angeles Center
12:15PM 34.6342 -119.1125 145° Southeast 402 463 23,100 -2,280 Descending Los Angeles Center
12:16PM 34.5375 -119.0319 146° Southeast 387 445 20,800 -2,220 Descending Los Angeles Center
12:17PM 34.4525 -118.9639 147° Southeast 365 420 18,600 -2,160 Descending Los Angeles Center
12:18PM 34.3714 -118.8944 145° Southeast 356 410 16,400 -1,980 Descending Los Angeles Center
12:19PM 34.2800 -118.8544 160° South 348 400 14,600 -1,200 Descending Los Angeles Center
12:20PM 34.1947 -118.8778 193° South 315 362 14,000 -1,200 Descending Los Angeles Center
12:21PM 34.1031 -118.9019 192° South 280 322 12,200 -1,560 Descending Los Angeles Center
12:22PM 34.0625 -118.8267 123° Southeast 289 333 10,800 -1,140 Descending Los Angeles Center
12:23PM 34.0486 -118.7278 100° East 289 333 9,900 -660 Descending Los Angeles Center
12:24PM 34.0356 -118.6353 100° East 258 297 9,500 -720 Descending Los Angeles Center
12:25PM 34.0261 -118.5700 100° East 257 296 8,500 -1,260 Descending Los Angeles Center
12:26PM 34.0117 -118.4661 99° East 255 293 7,000 -1,260 Descending Los Angeles Center
12:27PM 34.0189 -118.3753 84° East 255 293 6,000 -720 Descending Los Angeles Center
12:28PM 34.0250 -118.3122 83° East 246 283 5,600 -960 Descending Los Angeles Center
12:29PM 34.0222 -118.2314 92° East 221 254 4,000 -1,440 Descending Los Angeles Center
12:30PM 33.9811 -118.2336 183° South 212 244 2,700 -1,200 Descending Los Angeles Center
12:31PM 33.9628 -118.3028 252° West 193 222 1,600 -900 Descending Los Angeles Center
12:32PM 33.9575 -118.3542 263° West 173 199 900 -720 Descending Los Angeles Center
12:35PM 33.9333 -118.4000 228° Southwest  Level FlightAware Approximate
12:42PM 33.9425 -118.4081 228° Southwest  Level Estimated